Time,TemperatureF,DewpointF,PressureIn,WindDirection,WindDirectionDegrees,WindSpeedMPH,WindSpeedGustMPH,Humidity,HourlyPrecipIn,Conditions,Clouds,dailyrainin,SoftwareType,DateUTC
2013-04-15 00:00:00,32.7,29.0,30.13,West,270,0.0,-999.0,86,-99.99,,,0.00,Acu-Link.com,2013-04-15 04:00:00,
2013-04-15 00:15:00,31.8,28.4,30.13,West,270,0.0,-999.0,87,-99.99,,,0.00,Acu-Link.com,2013-04-15 04:15:00,
2013-04-15 00:30:00,31.5,28.4,30.13,West,270,0.0,-999.0,88,-99.99,,,0.00,Acu-Link.com,2013-04-15 04:30:00,
2013-04-15 00:45:00,32.0,30.5,30.13,South,180,0.0,-999.0,94,-99.99,,,0.00,Acu-Link.com,2013-04-15 04:45:00,
2013-04-15 01:01:00,31.6,30.8,30.14,SW,225,0.0,-999.0,97,-99.99,,,0.00,Acu-Link.com,2013-04-15 05:01:00,
2013-04-15 01:16:00,32.0,31.2,30.14,SW,225,1.7,-999.0,97,-99.99,,,0.00,Acu-Link.com,2013-04-15 05:16:00,
2013-04-15 01:31:00,32.0,31.2,30.14,SW,225,0.0,-999.0,97,-99.99,,,0.00,Acu-Link.com,2013-04-15 05:31:00,
2013-04-15 01:46:00,31.8,31.3,30.14,SSW,202,0.0,-999.0,98,-99.99,,,0.00,Acu-Link.com,2013-04-15 05:46:00,
2013-04-15 02:01:00,31.5,31.0,30.14,WSW,247,1.7,-999.0,98,-99.99,,,0.00,Acu-Link.com,2013-04-15 06:01:00,
2013-04-15 02:16:00,30.9,30.4,30.14,West,270,0.0,-999.0,98,-99.99,,,0.00,Acu-Link.com,2013-04-15 06:16:00,
2013-04-15 02:32:00,30.2,29.7,30.15,West,270,0.0,-999.0,98,-99.99,,,0.00,Acu-Link.com,2013-04-15 06:32:00,
2013-04-15 02:47:00,29.8,29.1,30.15,West,270,0.0,-999.0,97,-99.99,,,0.00,Acu-Link.com,2013-04-15 06:47:00,
2013-04-15 03:47:00,28.6,28.4,30.16,NNW,337,0.0,-999.0,99,-99.99,,,0.00,Acu-Link.com,2013-04-15 07:47:00,
2013-04-15 04:03:00,28.2,28.0,30.17,West,270,0.0,-999.0,99,-99.99,,,0.00,Acu-Link.com,2013-04-15 08:03:00,
2013-04-15 04:18:00,28.6,28.4,30.17,South,180,0.0,-999.0,99,-99.99,,,0.00,Acu-Link.com,2013-04-15 08:18:00,
2013-04-15 04:33:00,28.0,27.8,30.17,NW,315,0.0,-999.0,99,-99.99,,,0.00,Acu-Link.com,2013-04-15 08:33:00,
2013-04-15 04:48:00,27.9,27.7,30.18,NW,315,0.0,-999.0,99,-99.99,,,0.00,Acu-Link.com,2013-04-15 08:48:00,
2013-04-15 05:04:00,28.0,27.8,30.19,ENE,67,0.0,-999.0,99,-99.99,,,0.00,Acu-Link.com,2013-04-15 09:04:00,
2013-04-15 05:19:00,27.1,26.9,30.19,NW,315,0.0,-999.0,99,-99.99,,,0.00,Acu-Link.com,2013-04-15 09:19:00,
2013-04-15 05:34:00,26.8,26.6,30.19,NNW,337,0.0,-999.0,99,-99.99,,,0.00,Acu-Link.com,2013-04-15 09:34:00,
2013-04-15 05:49:00,27.0,26.8,30.21,South,180,0.0,-999.0,99,-99.99,,,0.00,Acu-Link.com,2013-04-15 09:49:00,
2013-04-15 06:04:00,27.0,26.8,30.22,WSW,247,0.0,-999.0,99,-99.99,,,0.00,Acu-Link.com,2013-04-15 10:04:00,
2013-04-15 06:19:00,26.6,26.4,30.23,WNW,292,0.0,-999.0,99,-99.99,,,0.00,Acu-Link.com,2013-04-15 10:19:00,
2013-04-15 06:35:00,27.1,26.9,30.24,NNW,337,0.0,-999.0,99,-99.99,,,0.00,Acu-Link.com,2013-04-15 10:35:00,
2013-04-15 06:50:00,28.0,27.8,30.26,WSW,247,0.0,-999.0,99,-99.99,,,0.00,Acu-Link.com,2013-04-15 10:50:00,
2013-04-15 07:05:00,29.1,28.9,30.27,ESE,112,0.0,-999.0,99,-99.99,,,0.00,Acu-Link.com,2013-04-15 11:05:00,
2013-04-15 07:20:00,30.9,30.7,30.27,WNW,292,0.0,-999.0,99,-99.99,,,0.00,Acu-Link.com,2013-04-15 11:20:00,
2013-04-15 07:35:00,33.6,33.3,30.27,ESE,112,0.0,-999.0,99,-99.99,,,0.00,Acu-Link.com,2013-04-15 11:35:00,
2013-04-15 07:50:00,37.0,36.7,30.28,ESE,112,0.0,-999.0,99,-99.99,,,0.00,Acu-Link.com,2013-04-15 11:50:00,
2013-04-15 08:05:00,40.8,37.2,30.28,WNW,292,0.0,-999.0,87,-99.99,,,0.00,Acu-Link.com,2013-04-15 12:05:00,
2013-04-15 08:21:00,43.3,35.2,30.28,SW,225,0.0,-999.0,73,-99.99,,,0.00,Acu-Link.com,2013-04-15 12:21:00,
2013-04-15 08:36:00,46.0,36.0,30.28,NNE,22,2.7,-999.0,68,-99.99,,,0.00,Acu-Link.com,2013-04-15 12:36:00,
2013-04-15 08:51:00,48.7,35.0,30.28,NNE,22,2.7,-999.0,59,-99.99,,,0.00,Acu-Link.com,2013-04-15 12:51:00,
2013-04-15 09:37:00,52.7,34.1,30.29,North,0,4.7,-999.0,49,-99.99,,,0.00,Acu-Link.com,2013-04-15 13:37:00,
2013-04-15 09:52:00,52.0,34.4,30.29,NNE,22,3.2,-999.0,51,-99.99,,,0.00,Acu-Link.com,2013-04-15 13:52:00,
2013-04-15 10:07:00,48.4,33.4,30.29,SSW,202,2.2,-999.0,56,-99.99,,,0.00,Acu-Link.com,2013-04-15 14:07:00,
2013-04-15 10:22:00,49.8,34.3,30.30,SSW,202,4.7,-999.0,55,-99.99,,,0.00,Acu-Link.com,2013-04-15 14:22:00,
2013-04-15 10:37:00,54.7,34.9,30.29,NE,45,5.3,-999.0,47,-99.99,,,0.00,Acu-Link.com,2013-04-15 14:37:00,
2013-04-15 10:52:00,50.4,32.5,30.29,WSW,247,2.2,-999.0,50,-99.99,,,0.00,Acu-Link.com,2013-04-15 14:52:00,
2013-04-15 11:07:00,52.5,32.3,30.29,SE,135,2.7,-999.0,46,-99.99,,,0.00,Acu-Link.com,2013-04-15 15:07:00,
2013-04-15 11:23:00,53.8,34.0,30.29,ESE,112,2.7,-999.0,47,-99.99,,,0.00,Acu-Link.com,2013-04-15 15:23:00,
2013-04-15 11:38:00,52.9,34.3,30.28,West,270,1.7,-999.0,49,-99.99,,,0.00,Acu-Link.com,2013-04-15 15:38:00,
2013-04-15 11:53:00,53.8,31.8,30.28,WSW,247,2.7,-999.0,43,-99.99,,,0.00,Acu-Link.com,2013-04-15 15:53:00,
2013-04-15 12:08:00,54.1,32.7,30.27,SSW,202,5.3,-999.0,44,-99.99,,,0.00,Acu-Link.com,2013-04-15 16:08:00,
2013-04-15 12:23:00,56.3,32.9,30.26,SSW,202,4.7,-999.0,41,-99.99,,,0.00,Acu-Link.com,2013-04-15 16:23:00,
2013-04-15 12:38:00,58.3,33.5,30.27,SE,135,3.2,-999.0,39,-99.99,,,0.00,Acu-Link.com,2013-04-15 16:38:00,
2013-04-15 12:53:00,57.0,32.9,30.26,SSW,202,2.7,-999.0,40,-99.99,,,0.00,Acu-Link.com,2013-04-15 16:53:00,
2013-04-15 13:08:00,56.5,31.8,30.26,SW,225,3.7,-999.0,39,-99.99,,,0.00,Acu-Link.com,2013-04-15 17:08:00,
2013-04-15 13:23:00,57.0,34.1,30.26,SSW,202,2.7,-999.0,42,-99.99,,,0.00,Acu-Link.com,2013-04-15 17:23:00,
2013-04-15 13:39:00,56.7,32.7,30.25,South,180,5.3,-999.0,40,-99.99,,,0.00,Acu-Link.com,2013-04-15 17:39:00,
2013-04-15 13:54:00,57.2,33.1,30.26,SSW,202,5.8,-999.0,40,-99.99,,,0.00,Acu-Link.com,2013-04-15 17:54:00,
2013-04-15 14:09:00,58.3,34.1,30.24,SW,225,5.3,-999.0,40,-99.99,,,0.00,Acu-Link.com,2013-04-15 18:09:00,
2013-04-15 14:40:00,59.2,34.3,30.24,NE,45,6.8,-999.0,39,-99.99,,,0.00,Acu-Link.com,2013-04-15 18:40:00,
2013-04-15 14:55:00,58.5,33.0,30.24,South,180,5.8,-999.0,38,-99.99,,,0.00,Acu-Link.com,2013-04-15 18:55:00,
2013-04-15 15:10:00,59.2,33.6,30.22,SSW,202,6.3,-999.0,38,-99.99,,,0.00,Acu-Link.com,2013-04-15 19:10:00,
2013-04-15 15:25:00,59.2,34.3,30.22,SSW,202,9.4,-999.0,39,-99.99,,,0.00,Acu-Link.com,2013-04-15 19:25:00,
2013-04-15 15:40:00,59.0,34.1,30.22,East,90,4.2,-999.0,39,-99.99,,,0.00,Acu-Link.com,2013-04-15 19:40:00,
2013-04-15 16:10:00,59.0,33.4,30.21,SSE,157,4.2,-999.0,38,-99.99,,,0.00,Acu-Link.com,2013-04-15 20:10:00,
2013-04-15 16:25:00,59.2,33.6,30.20,WSW,247,2.7,-999.0,38,-99.99,,,0.00,Acu-Link.com,2013-04-15 20:25:00,
2013-04-15 16:40:00,61.0,34.5,30.21,NW,315,2.2,-999.0,37,-99.99,,,0.00,Acu-Link.com,2013-04-15 20:40:00,
2013-04-15 16:56:00,59.0,34.1,30.20,SSE,157,5.3,-999.0,39,-99.99,,,0.00,Acu-Link.com,2013-04-15 20:56:00,
2013-04-15 17:11:00,57.7,34.8,30.20,WSW,247,6.3,-999.0,42,-99.99,,,0.00,Acu-Link.com,2013-04-15 21:11:00,
2013-04-15 17:41:00,56.7,35.6,30.21,NNE,22,4.7,-999.0,45,-99.99,,,0.00,Acu-Link.com,2013-04-15 21:41:00,
2013-04-15 17:56:00,57.4,36.2,30.22,ENE,67,4.2,-999.0,45,-99.99,,,0.00,Acu-Link.com,2013-04-15 21:56:00,
2013-04-15 18:11:00,55.9,35.4,30.23,South,180,4.2,-999.0,46,-99.99,,,0.00,Acu-Link.com,2013-04-15 22:11:00,
2013-04-15 18:26:00,54.9,36.1,30.23,ESE,112,2.7,-999.0,49,-99.99,,,0.00,Acu-Link.com,2013-04-15 22:26:00,
2013-04-15 18:41:00,53.2,35.5,30.24,SSW,202,7.8,-999.0,51,-99.99,,,0.00,Acu-Link.com,2013-04-15 22:41:00,
2013-04-15 18:56:00,52.0,35.9,30.24,SW,225,5.3,-999.0,54,-99.99,,,0.00,Acu-Link.com,2013-04-15 22:56:00,
2013-04-15 19:12:00,50.5,36.3,30.24,SE,135,5.3,-999.0,58,-99.99,,,0.00,Acu-Link.com,2013-04-15 23:12:00,
2013-04-15 19:27:00,49.3,35.6,30.26,West,270,4.7,-999.0,59,-99.99,,,0.00,Acu-Link.com,2013-04-15 23:27:00,
2013-04-15 19:42:00,48.6,34.1,30.27,SE,135,2.2,-999.0,57,-99.99,,,0.00,Acu-Link.com,2013-04-15 23:42:00,
2013-04-15 19:57:00,47.7,34.1,30.28,SSE,157,1.1,-999.0,59,-99.99,,,0.00,Acu-Link.com,2013-04-15 23:57:00,
2013-04-15 20:12:00,46.9,34.6,30.27,SE,135,2.2,-999.0,62,-99.99,,,0.00,Acu-Link.com,2013-04-16 00:12:00,
2013-04-15 20:27:00,46.4,35.3,30.27,SW,225,3.7,-999.0,65,-99.99,,,0.00,Acu-Link.com,2013-04-16 00:27:00,
2013-04-15 20:42:00,45.7,35.4,30.26,SW,225,1.7,-999.0,67,-99.99,,,0.00,Acu-Link.com,2013-04-16 00:42:00,
2013-04-15 20:57:00,45.3,36.1,30.27,East,90,4.2,-999.0,70,-99.99,,,0.00,Acu-Link.com,2013-04-16 00:57:00,
2013-04-15 21:12:00,45.5,36.7,30.28,SSE,157,5.8,-999.0,71,-99.99,,,0.00,Acu-Link.com,2013-04-16 01:12:00,
2013-04-15 21:28:00,44.6,35.8,30.29,SE,135,1.7,-999.0,71,-99.99,,,0.00,Acu-Link.com,2013-04-16 01:28:00,
2013-04-15 21:43:00,44.1,36.0,30.29,ESE,112,1.7,-999.0,73,-99.99,,,0.00,Acu-Link.com,2013-04-16 01:43:00,
2013-04-15 21:58:00,43.9,35.8,30.30,South,180,1.1,-999.0,73,-99.99,,,0.00,Acu-Link.com,2013-04-16 01:58:00,
2013-04-15 22:13:00,43.2,36.2,30.30,ESE,112,2.7,-999.0,76,-99.99,,,0.00,Acu-Link.com,2013-04-16 02:13:00,
2013-04-15 22:28:00,42.8,36.4,30.30,SE,135,2.7,-999.0,78,-99.99,,,0.00,Acu-Link.com,2013-04-16 02:28:00,
2013-04-15 22:43:00,41.4,36.6,30.30,ESE,112,1.1,-999.0,83,-99.99,,,0.00,Acu-Link.com,2013-04-16 02:43:00,
2013-04-15 22:58:00,40.8,36.6,30.30,ESE,112,0.0,-999.0,85,-99.99,,,0.00,Acu-Link.com,2013-04-16 02:58:00,
2013-04-15 23:13:00,40.3,36.7,30.29,South,180,0.0,-999.0,87,-99.99,,,0.00,Acu-Link.com,2013-04-16 03:13:00,
2013-04-15 23:28:00,39.6,36.9,30.30,ESE,112,0.0,-999.0,90,-99.99,,,0.00,Acu-Link.com,2013-04-16 03:28:00,
2013-04-15 23:44:00,40.3,38.2,30.30,ESE,112,2.2,-999.0,92,-99.99,,,0.00,Acu-Link.com,2013-04-16 03:44:00,
2013-04-15 23:59:00,40.8,38.4,30.31,SSE,157,2.7,-999.0,91,-99.99,,,0.00,Acu-Link.com,2013-04-16 03:59:00,